Time;durP1;ratioP1;P1;durP2;ratioP2;P2;SDS_P1;SDS_P2;PMS_P1;PMS_P2;Temp;Humidity;BMP_temperature;BMP_pressure;BME280_temperature;BME280_humidity;BME280_pressure;Samples;Min_cycle;Max_cycle;Signal;HPM_P1;HPM_P2
2021/12/04 00:01:40;;;;;;;;;;;;;;;;;;5020158;28;19929;-68
2021/12/04 00:04:11;;;;;;;;;;;;;;;;;;5018641;28;19929;-68
2021/12/04 00:07:01;;;;;;;;;;;;;;;;;;5023698;28;19929;-68
2021/12/04 00:09:47;;;;;;;;;;;;;;;;;;5025689;28;19956;-67
2021/12/04 00:12:16;;;;;;;;;;;;;;;;;;5018038;28;19929;-68
2021/12/04 00:14:48;;;;;;;;;;;;;;;;;;5026336;28;19932;-68
2021/12/04 00:17:18;;;;;;;;;;;;;;;;;;5026828;28;20011;-67
2021/12/04 00:20:07;;;;;;;;;;;;;;;;;;5027225;28;19956;-67
2021/12/04 00:22:36;;;;;;;;;;;;;;;;;;5025126;28;19929;-68
2021/12/04 00:25:06;;;;;;;;;;;;;;;;;;5023047;28;19925;-68
2021/12/04 00:27:35;;;;;;;;;;;;;;;;;;5005956;28;20683;-68
2021/12/04 00:30:15;;;;;;;;;;;;;;;;;;5027601;28;19944;-68
2021/12/04 00:32:55;;;;;;;;;;;;;;;;;;5012983;28;19925;-68
2021/12/04 00:49:07;;;;;;;;;;;;;;;;;;5031703;28;19925;-67
2021/12/04 00:49:16;;;;;;;;;;;;;;;;;;5029898;28;19932;-67
2021/12/04 00:51:58;;;;;;;;;;;;;;;;;;5030439;28;20110;-68
2021/12/04 00:54:32;;;;;;;;;;;;;;;;;;5018637;28;19925;-68
2021/12/04 00:57:04;;;;;;;;;;;;;;;;;;5033857;28;19931;-68
2021/12/04 00:59:34;;;;;;;;;;;;;;;;;;5034771;28;20350;-68
2021/12/04 01:02:01;;;;;;;;;;;;;;;;;;5029101;28;20666;-68
2021/12/04 01:04:30;;;;;;;;;;;;;;;;;;5030658;28;19929;-68
2021/12/04 01:07:03;;;;;;;;;;;;;;;;;;5030068;28;20333;-68
2021/12/04 01:09:31;;;;;;;;;;;;;;;;;;5029457;28;19932;-68
2021/12/04 01:12:02;;;;;;;;;;;;;;;;;;5024734;28;20339;-68
2021/12/04 01:14:35;;;;;;;;;;;;;;;;;;5029176;28;19929;-68
2021/12/04 01:17:06;;;;;;;;;;;;;;;;;;5030257;28;19929;-68
2021/12/04 01:19:36;;;;;;;;;;;;;;;;;;5029288;28;19926;-67
2021/12/04 01:22:09;;;;;;;;;;;;;;;;;;5017822;28;20359;-68
2021/12/04 01:24:40;;;;;;;;;;;;;;;;;;5028571;28;19929;-68
2021/12/04 01:27:14;;;;;;;;;;;;;;;;;;5026404;28;19975;-68
2021/12/04 01:29:42;;;;;;;;;;;;;;;;;;5025144;28;19935;-67
2021/12/04 01:32:12;;;;;;;;;;;;;;;;;;5029768;28;19929;-67
2021/12/04 01:34:41;;;;;;;;;;;;;;;;;;5026555;28;19925;-67
2021/12/04 01:37:14;;;;;;;;;;;;;;;;;;5029208;28;20367;-68
2021/12/04 01:39:42;;;;;;;;;;;;;;;;;;5022781;28;19925;-68
2021/12/04 01:42:10;;;;;;;;;;;;;;;;;;5027788;28;19929;-68
2021/12/04 01:44:40;;;;;;;;;;;;;;;;;;5026129;28;19982;-68
2021/12/04 01:47:16;;;;;;;;;;;;;;;;;;5029404;28;19929;-68
2021/12/04 01:49:58;;;;;;;;;;;;;;;;;;5012927;28;19925;-68
2021/12/04 01:52:29;;;;;;;;;;;;;;;;;;5026665;28;19940;-68
2021/12/04 01:55:01;;;;;;;;;;;;;;;;;;5024063;28;19925;-68
2021/12/04 01:57:38;;;;;;;;;;;;;;;;;;5026469;28;19932;-68
2021/12/04 02:00:12;;;;;;;;;;;;;;;;;;5028441;28;20468;-68
2021/12/04 02:02:47;;;;;;;;;;;;;;;;;;5024677;28;19925;-68
2021/12/04 02:05:16;;;;;;;;;;;;;;;;;;5026501;28;20335;-67
2021/12/04 02:07:47;;;;;;;;;;;;;;;;;;5025745;28;20546;-67
2021/12/04 02:10:18;;;;;;;;;;;;;;;;;;5027096;28;19925;-68
2021/12/04 02:12:49;;;;;;;;;;;;;;;;;;5027580;28;20267;-68
2021/12/04 02:15:20;;;;;;;;;;;;;;;;;;5012631;28;19948;-67
2021/12/04 02:17:50;;;;;;;;;;;;;;;;;;5024741;28;19936;-68
2021/12/04 02:20:24;;;;;;;;;;;;;;;;;;5027182;28;19947;-68
2021/12/04 02:23:03;;;;;;;;;;;;;;;;;;5024384;28;19947;-68
2021/12/04 02:25:33;;;;;;;;;;;;;;;;;;5015239;28;20375;-68
2021/12/04 02:28:06;;;;;;;;;;;;;;;;;;5026622;28;19932;-68
2021/12/04 02:30:36;;;;;;;;;;;;;;;;;;5017241;28;19925;-68
2021/12/04 02:33:18;;;;;;;;;;;;;;;;;;5026989;28;20369;-68
2021/12/04 02:35:51;;;;;;;;;;;;;;;;;;5027107;28;19933;-68
2021/12/04 02:38:23;;;;;;;;;;;;;;;;;;5022569;28;19929;-68
2021/12/04 02:40:56;;;;;;;;;;;;;;;;;;5019769;28;20265;-68
2021/12/04 02:43:29;;;;;;;;;;;;;;;;;;5025962;28;19925;-68
2021/12/04 02:46:00;;;;;;;;;;;;;;;;;;5024827;28;19929;-68
2021/12/04 02:48:30;;;;;;;;;;;;;;;;;;5028166;28;19936;-67
2021/12/04 02:51:00;;;;;;;;;;;;;;;;;;5024051;28;19925;-67
2021/12/04 02:53:31;;;;;;;;;;;;;;;;;;5024671;28;19933;-67
2021/12/04 02:56:04;;;;;;;;;;;;;;;;;;5023863;28;19938;-67
2021/12/04 02:58:39;;;;;;;;;;;;;;;;;;5026622;28;20008;-67
2021/12/04 03:01:08;;;;;;;;;;;;;;;;;;5028067;28;19925;-67
2021/12/04 03:03:37;;;;;;;;;;;;;;;;;;5022400;28;19929;-67
2021/12/04 03:06:07;;;;;;;;;;;;;;;;;;5024744;28;20232;-67
2021/12/04 03:08:39;;;;;;;;;;;;;;;;;;5024039;28;20552;-67
2021/12/04 03:11:10;;;;;;;;;;;;;;;;;;5025105;28;19933;-67
2021/12/04 03:13:43;;;;;;;;;;;;;;;;;;5023240;28;20347;-67
2021/12/04 03:16:12;;;;;;;;;;;;;;;;;;5025182;28;19925;-67
2021/12/04 03:18:41;;;;;;;;;;;;;;;;;;5026551;28;20524;-67
2021/12/04 03:21:10;;;;;;;;;;;;;;;;;;5023651;28;20513;-67
2021/12/04 03:23:52;;;;;;;;;;;;;;;;;;5024439;28;19937;-67
2021/12/04 03:26:24;;;;;;;;;;;;;;;;;;5022082;28;19925;-67
2021/12/04 03:28:57;;;;;;;;;;;;;;;;;;5027789;28;19925;-67
2021/12/04 03:42:33;;;;;;;;;;;;;;;;;;5033211;28;19925;-67
2021/12/04 03:45:03;;;;;;;;;;;;;;;;;;5029336;28;19925;-67
2021/12/04 03:47:39;;;;;;;;;;;;;;;;;;5027753;28;20492;-67
2021/12/04 03:50:26;;;;;;;;;;;;;;;;;;5030688;28;19925;-67
2021/12/04 03:52:57;;;;;;;;;;;;;;;;;;5031527;28;19933;-67
2021/12/04 03:55:26;;;;;;;;;;;;;;;;;;5014520;28;19928;-67
2021/12/04 03:57:55;;;;;;;;;;;;;;;;;;5031560;28;20601;-67
2021/12/04 04:00:28;;;;;;;;;;;;;;;;;;5031471;28;19926;-67
2021/12/04 04:02:58;;;;;;;;;;;;;;;;;;5030852;28;19929;-67
2021/12/04 04:05:28;;;;;;;;;;;;;;;;;;5032430;28;19925;-67
2021/12/04 04:07:58;;;;;;;;;;;;;;;;;;5028929;28;20565;-68
2021/12/04 04:10:29;;;;;;;;;;;;;;;;;;5031763;28;19933;-68
2021/12/04 04:12:58;;;;;;;;;;;;;;;;;;5030505;28;19944;-67
2021/12/04 04:15:27;;;;;;;;;;;;;;;;;;5027315;28;20644;-67
2021/12/04 04:18:10;;;;;;;;;;;;;;;;;;5031256;28;20018;-67
2021/12/04 04:20:41;;;;;;;;;;;;;;;;;;5033737;28;20347;-67
2021/12/04 04:23:12;;;;;;;;;;;;;;;;;;5031175;28;19973;-67
2021/12/04 04:25:39;;;;;;;;;;;;;;;;;;5026865;28;19978;-67
2021/12/04 04:28:07;;;;;;;;;;;;;;;;;;5031451;28;19933;-67
2021/12/04 04:30:36;;;;;;;;;;;;;;;;;;5028842;28;19936;-67
2021/12/04 04:33:07;;;;;;;;;;;;;;;;;;5033592;28;19929;-67
2021/12/04 04:35:37;;;;;;;;;;;;;;;;;;5045107;28;19979;-67
2021/12/04 04:38:17;;;;;;;;;;;;;;;;;;5028741;28;19932;-67
2021/12/04 04:58:05;;;;;;;;;;;;;;;;;;5024315;28;20309;-68
2021/12/04 05:12:11;;;;;;;;;;;;;;;;;;5024247;28;19944;-67
2021/12/04 05:14:43;;;;;;;;;;;;;;;;;;5025598;28;19931;-67
2021/12/04 05:20:08;;;;;;;;;;;;;;;;;;5028420;28;19925;-68
2021/12/04 05:22:38;;;;;;;;;;;;;;;;;;5026395;28;20321;-67
2021/12/04 05:25:08;;;;;;;;;;;;;;;;;;5027962;28;19994;-67
2021/12/04 05:27:39;;;;;;;;;;;;;;;;;;5023034;28;19926;-67
2021/12/04 05:30:09;;;;;;;;;;;;;;;;;;5025775;28;19940;-67
2021/12/04 05:32:40;;;;;;;;;;;;;;;;;;5026499;28;19925;-67
2021/12/04 05:35:09;;;;;;;;;;;;;;;;;;5028972;28;20646;-67
2021/12/04 05:37:42;;;;;;;;;;;;;;;;;;5036663;28;19936;-67
2021/12/04 05:40:14;;;;;;;;;;;;;;;;;;5029637;28;20585;-67
2021/12/04 05:42:48;;;;;;;;;;;;;;;;;;5011245;28;19935;-67
2021/12/04 05:45:21;;;;;;;;;;;;;;;;;;5023268;28;19925;-67
2021/12/04 05:51:16;;;;;;;;;;;;;;;;;;5024336;28;19925;-67
2021/12/04 05:56:23;;;;;;;;;;;;;;;;;;5027314;28;19963;-67
2021/12/04 05:59:10;;;;;;;;;;;;;;;;;;5028204;28;19980;-67
2021/12/04 06:01:40;;;;;;;;;;;;;;;;;;5009495;28;20414;-67
2021/12/04 06:04:13;;;;;;;;;;;;;;;;;;5024493;28;20621;-67
2021/12/04 06:06:45;;;;;;;;;;;;;;;;;;5027396;28;19935;-67
2021/12/04 06:09:15;;;;;;;;;;;;;;;;;;5025127;28;19940;-67
2021/12/04 06:11:47;;;;;;;;;;;;;;;;;;5024905;28;19979;-67
2021/12/04 06:14:16;;;;;;;;;;;;;;;;;;5022249;28;20347;-67
2021/12/04 06:16:44;;;;;;;;;;;;;;;;;;5026842;28;19925;-67
2021/12/04 06:24:51;;;;;;;;;;;;;;;;;;5025056;28;20321;-67
2021/12/04 06:27:32;;;;;;;;;;;;;;;;;;5025677;28;19933;-67
2021/12/04 06:30:04;;;;;;;;;;;;;;;;;;5025394;28;19929;-67
2021/12/04 06:32:37;;;;;;;;;;;;;;;;;;5028157;28;20023;-68
2021/12/04 06:35:08;;;;;;;;;;;;;;;;;;5026862;28;20370;-68
2021/12/04 06:37:37;;;;;;;;;;;;;;;;;;5030869;28;19932;-67
2021/12/04 06:40:06;;;;;;;;;;;;;;;;;;5025360;28;19933;-67
2021/12/04 06:42:35;;;;;;;;;;;;;;;;;;5027001;28;19936;-67
2021/12/04 06:45:06;;;;;;;;;;;;;;;;;;5026140;28;19940;-68
2021/12/04 06:47:46;;;;;;;;;;;;;;;;;;5024296;28;19925;-68
2021/12/04 06:53:32;;;;;;;;;;;;;;;;;;4983445;28;20322;-67
2021/12/04 06:56:05;;;;;;;;;;;;;;;;;;5024727;28;19939;-68
2021/12/04 06:58:37;;;;;;;;;;;;;;;;;;5023514;28;20382;-67
2021/12/04 07:01:05;;;;;;;;;;;;;;;;;;5027518;28;19941;-67
2021/12/04 07:03:37;;;;;;;;;;;;;;;;;;5021009;28;19929;-67
2021/12/04 07:06:07;;;;;;;;;;;;;;;;;;5025301;28;19936;-67
2021/12/04 07:08:34;;;;;;;;;;;;;;;;;;5024921;28;19925;-67
2021/12/04 07:11:07;;;;;;;;;;;;;;;;;;5027179;28;19964;-67
2021/12/04 07:13:40;;;;;;;;;;;;;;;;;;5019217;28;19933;-67
2021/12/04 07:16:23;;;;;;;;;;;;;;;;;;5037771;28;19955;-68
2021/12/04 07:18:54;;;;;;;;;;;;;;;;;;5023110;28;19925;-68
2021/12/04 07:21:24;;;;;;;;;;;;;;;;;;5035115;28;19936;-68
2021/12/04 07:23:54;;;;;;;;;;;;;;;;;;5022176;28;19929;-68
2021/12/04 07:26:26;;;;;;;;;;;;;;;;;;5033865;28;19939;-69
2021/12/04 07:28:57;;;;;;;;;;;;;;;;;;5027830;28;19932;-68
2021/12/04 07:31:26;;;;;;;;;;;;;;;;;;5035286;28;20011;-68
2021/12/04 07:33:59;;;;;;;;;;;;;;;;;;5021785;28;19925;-68
2021/12/04 07:36:29;;;;;;;;;;;;;;;;;;5039902;28;20389;-67
2021/12/04 07:39:01;;;;;;;;;;;;;;;;;;5018112;28;20013;-67
2021/12/04 07:41:31;;;;;;;;;;;;;;;;;;5034116;28;19933;-69
2021/12/04 07:44:02;;;;;;;;;;;;;;;;;;5008230;28;19991;-69
2021/12/04 07:46:32;;;;;;;;;;;;;;;;;;5034540;28;20016;-68
2021/12/04 07:49:07;;;;;;;;;;;;;;;;;;5024601;28;19926;-68
2021/12/04 07:51:39;;;;;;;;;;;;;;;;;;5028639;28;19967;-67
2021/12/04 07:54:09;;;;;;;;;;;;;;;;;;5026016;28;19990;-67
2021/12/04 07:56:38;;;;;;;;;;;;;;;;;;5024774;28;20372;-67
2021/12/04 07:59:09;;;;;;;;;;;;;;;;;;5025250;28;19932;-67
2021/12/04 08:01:41;;;;;;;;;;;;;;;;;;5003595;28;20527;-67
2021/12/04 08:04:12;;;;;;;;;;;;;;;;;;5025086;28;20361;-67
2021/12/04 08:06:43;;;;;;;;;;;;;;;;;;5023693;28;19944;-68
2021/12/04 08:09:15;;;;;;;;;;;;;;;;;;5025673;28;19925;-68
2021/12/04 08:11:49;;;;;;;;;;;;;;;;;;5020653;28;20508;-67
2021/12/04 08:14:20;;;;;;;;;;;;;;;;;;5020037;28;19926;-67
2021/12/04 08:16:51;;;;;;;;;;;;;;;;;;5022884;28;20383;-67
2021/12/04 08:19:22;;;;;;;;;;;;;;;;;;5025845;28;20496;-67
2021/12/04 08:21:51;;;;;;;;;;;;;;;;;;5024745;28;19925;-67
2021/12/04 08:24:21;;;;;;;;;;;;;;;;;;5010847;28;20004;-67
2021/12/04 08:26:52;;;;;;;;;;;;;;;;;;5025090;28;19929;-66
2021/12/04 08:29:22;;;;;;;;;;;;;;;;;;5027020;28;19951;-67
2021/12/04 08:31:52;;;;;;;;;;;;;;;;;;5023934;28;19936;-67
2021/12/04 08:34:23;;;;;;;;;;;;;;;;;;5025825;28;19926;-67
2021/12/04 08:36:52;;;;;;;;;;;;;;;;;;5024722;28;19929;-67
2021/12/04 08:39:20;;;;;;;;;;;;;;;;;;5024032;28;19951;-67
2021/12/04 08:41:50;;;;;;;;;;;;;;;;;;5027128;28;19925;-66
2021/12/04 08:44:20;;;;;;;;;;;;;;;;;;5025814;28;19925;-67
2021/12/04 08:46:51;;;;;;;;;;;;;;;;;;5026045;28;23850;-66
2021/12/04 08:49:21;;;;;;;;;;;;;;;;;;5026191;28;20531;-67
2021/12/04 08:51:53;;;;;;;;;;;;;;;;;;5019695;28;19939;-67
2021/12/04 08:54:29;;;;;;;;;;;;;;;;;;5025160;28;20551;-68
2021/12/04 08:56:57;;;;;;;;;;;;;;;;;;5027587;28;19933;-67
2021/12/04 08:59:32;;;;;;;;;;;;;;;;;;5030159;28;19925;-67
2021/12/04 09:02:02;;;;;;;;;;;;;;;;;;5023930;28;19933;-67
2021/12/04 09:04:35;;;;;;;;;;;;;;;;;;5024137;28;19940;-67
2021/12/04 09:07:03;;;;;;;;;;;;;;;;;;5026545;28;19940;-66
2021/12/04 09:09:33;;;;;;;;;;;;;;;;;;5024348;28;20578;-67
2021/12/04 09:12:25;;;;;;;;;;;;;;;;;;5026820;28;19933;-66
2021/12/04 09:14:59;;;;;;;;;;;;;;;;;;5024114;28;19925;-66
2021/12/04 09:17:30;;;;;;;;;;;;;;;;;;5027866;28;19934;-67
2021/12/04 09:20:03;;;;;;;;;;;;;;;;;;4985795;28;22166;-66
2021/12/04 09:22:44;;;;;;;;;;;;;;;;;;4987452;28;19926;-67
2021/12/04 09:25:13;;;;;;;;;;;;;;;;;;4987635;28;19926;-67
2021/12/04 10:01:18;;;;;;;;;;;;;;;;;;4985675;28;19929;-67
2021/12/04 10:04:22;;;;;;;;;;;;;;;;;;4984709;28;19926;-70
2021/12/04 10:21:14;;;;;;;;;;;;;;;;;;5026102;28;19929;-70
2021/12/04 10:34:52;;;;;;;;;;;;;;;;;;5001805;28;19927;-71
2021/12/04 10:37:27;;;;;;;;;;;;;;;;;;5027261;28;20063;-72
2021/12/04 10:39:57;;;;;;;;;;;;;;;;;;5022024;28;19925;-72
2021/12/04 10:42:40;;;;;;;;;;;;;;;;;;5025005;28;19968;-71
2021/12/04 10:45:09;;;;;;;;;;;;;;;;;;5025191;28;19933;-69
2021/12/04 10:47:36;;;;;;;;;;;;;;;;;;5027275;28;19948;-69
2021/12/04 10:50:36;;;;;;;;;;;;;;;;;;5023835;28;19925;-71
2021/12/04 10:53:14;;;;;;;;;;;;;;;;;;5022731;28;19933;-72
2021/12/04 10:56:52;;;;;;;;;;;;;;;;;;5023506;28;19929;-72
2021/12/04 11:04:11;;;;;;;;;;;;;;;;;;5020243;28;19941;-68
2021/12/04 11:37:44;;;;;;;;;;;;;;;;;;4985825;28;19926;-72
2021/12/04 11:42:44;;;;;;;;;;;;;;;;;;4986935;28;20160;-70
2021/12/04 11:45:25;;;;;;;;;;;;;;;;;;4983445;28;19942;-69
2021/12/04 11:47:55;;;;;;;;;;;;;;;;;;4981727;28;19926;-70
2021/12/04 11:50:26;;;;;;;;;;;;;;;;;;4984243;28;19929;-71
2021/12/04 11:53:11;;;;;;;;;;;;;;;;;;4988549;28;19926;-72
2021/12/04 11:55:44;;;;;;;;;;;;;;;;;;4986113;28;19944;-71
2021/12/04 11:58:16;;;;;;;;;;;;;;;;;;4985369;28;20501;-69
2021/12/04 12:00:45;;;;;;;;;;;;;;;;;;4979493;28;19980;-68
2021/12/04 12:03:17;;;;;;;;;;;;;;;;;;4984047;28;20467;-70
2021/12/04 12:05:46;;;;;;;;;;;;;;;;;;4980786;28;19925;-70
2021/12/04 12:08:22;;;;;;;;;;;;;;;;;;4986061;28;19956;-71
2021/12/04 12:10:57;;;;;;;;;;;;;;;;;;4987398;28;19933;-68
2021/12/04 12:13:31;;;;;;;;;;;;;;;;;;4974996;28;19934;-67
2021/12/04 12:15:59;;;;;;;;;;;;;;;;;;4979338;28;20138;-68
2021/12/04 12:18:30;;;;;;;;;;;;;;;;;;4987083;28;19955;-69
2021/12/04 12:21:11;;;;;;;;;;;;;;;;;;4994743;28;19925;-69
2021/12/04 12:23:44;;;;;;;;;;;;;;;;;;4989684;28;19940;-69
2021/12/04 12:26:26;;;;;;;;;;;;;;;;;;4988886;28;20374;-69
2021/12/04 12:32:20;;;;;;;;;;;;;;;;;;4988136;28;19930;-69
2021/12/04 12:37:18;;;;;;;;;;;;;;;;;;4987644;28;20552;-70
2021/12/04 12:39:48;;;;;;;;;;;;;;;;;;4990795;28;19926;-70
2021/12/04 12:42:19;;;;;;;;;;;;;;;;;;4987127;28;19941;-69
2021/12/04 12:44:51;;;;;;;;;;;;;;;;;;4992655;28;19925;-69
2021/12/04 12:47:21;;;;;;;;;;;;;;;;;;4995412;28;19941;-70
2021/12/04 12:49:51;;;;;;;;;;;;;;;;;;4989209;28;19925;-69
2021/12/04 12:52:19;;;;;;;;;;;;;;;;;;4999293;28;19933;-67
2021/12/04 12:54:51;;;;;;;;;;;;;;;;;;4996174;28;19975;-67
2021/12/04 12:57:24;;;;;;;;;;;;;;;;;;4988993;28;20272;-67
2021/12/04 13:11:35;;;;;;;;;;;;;;;;;;4981765;28;19940;-67
2021/12/04 13:14:06;;;;;;;;;;;;;;;;;;4991245;28;19926;-71
2021/12/04 13:16:38;;;;;;;;;;;;;;;;;;4991441;28;20364;-71
2021/12/04 13:19:11;;;;;;;;;;;;;;;;;;5017321;28;20236;-71
2021/12/04 13:21:40;;;;;;;;;;;;;;;;;;5027207;28;19925;-71
2021/12/04 13:24:11;;;;;;;;;;;;;;;;;;5028373;28;20478;-71
2021/12/04 13:26:42;;;;;;;;;;;;;;;;;;5022621;28;19939;-71
2021/12/04 13:29:13;;;;;;;;;;;;;;;;;;5039677;28;19933;-71
2021/12/04 13:31:43;;;;;;;;;;;;;;;;;;5027897;28;19925;-71
2021/12/04 13:34:13;;;;;;;;;;;;;;;;;;5030898;28;19925;-71
2021/12/04 13:36:45;;;;;;;;;;;;;;;;;;5029534;28;20368;-71
2021/12/04 13:39:17;;;;;;;;;;;;;;;;;;5025332;28;19936;-71
2021/12/04 13:41:48;;;;;;;;;;;;;;;;;;5025474;28;19925;-71
2021/12/04 13:44:18;;;;;;;;;;;;;;;;;;5028274;28;20417;-71
2021/12/04 13:46:47;;;;;;;;;;;;;;;;;;5026756;28;19936;-71
2021/12/04 13:49:15;;;;;;;;;;;;;;;;;;5029568;28;19929;-71
2021/12/04 13:51:45;;;;;;;;;;;;;;;;;;5020674;28;19929;-71
2021/12/04 13:54:16;;;;;;;;;;;;;;;;;;5026942;28;19929;-71
2021/12/04 13:56:45;;;;;;;;;;;;;;;;;;5027254;28;20024;-72
2021/12/04 13:59:15;;;;;;;;;;;;;;;;;;5024117;28;19928;-68
2021/12/04 14:01:48;;;;;;;;;;;;;;;;;;5021531;28;20007;-65
2021/12/04 14:04:16;;;;;;;;;;;;;;;;;;5026029;28;19929;-65
2021/12/04 14:06:45;;;;;;;;;;;;;;;;;;5026948;28;19929;-70
2021/12/04 14:09:28;;;;;;;;;;;;;;;;;;5027984;28;19972;-70
2021/12/04 14:11:59;;;;;;;;;;;;;;;;;;5022866;28;20382;-66
2021/12/04 14:14:29;;;;;;;;;;;;;;;;;;5010197;28;20424;-69
2021/12/04 14:17:00;;;;;;;;;;;;;;;;;;5027499;28;20406;-70
2021/12/04 14:19:28;;;;;;;;;;;;;;;;;;5025182;28;19963;-70
2021/12/04 14:21:59;;;;;;;;;;;;;;;;;;5025326;28;20378;-69
2021/12/04 14:24:29;;;;;;;;;;;;;;;;;;5022661;28;19956;-69
2021/12/04 14:26:57;;;;;;;;;;;;;;;;;;5024056;28;20236;-67
2021/12/04 14:29:27;;;;;;;;;;;;;;;;;;5022892;28;19933;-67
2021/12/04 14:31:57;;;;;;;;;;;;;;;;;;5019941;28;19955;-70
2021/12/04 14:34:29;;;;;;;;;;;;;;;;;;5010861;28;20024;-74
2021/12/04 14:37:01;;;;;;;;;;;;;;;;;;5035669;28;19986;-70
2021/12/04 14:39:35;;;;;;;;;;;;;;;;;;5032100;28;19992;-71
2021/12/04 14:42:06;;;;;;;;;;;;;;;;;;5038356;28;19925;-73
2021/12/04 14:44:36;;;;;;;;;;;;;;;;;;5038135;28;19964;-74
2021/12/04 14:47:08;;;;;;;;;;;;;;;;;;5023120;28;20022;-74
2021/12/04 14:49:50;;;;;;;;;;;;;;;;;;5034112;28;19929;-73
2021/12/04 14:52:18;;;;;;;;;;;;;;;;;;5023574;28;19933;-73
2021/12/04 14:54:47;;;;;;;;;;;;;;;;;;5024817;28;19929;-73
2021/12/04 14:57:18;;;;;;;;;;;;;;;;;;5025624;28;19940;-72
2021/12/04 14:59:50;;;;;;;;;;;;;;;;;;5020725;28;20020;-72
2021/12/04 15:02:17;;;;;;;;;;;;;;;;;;5020700;28;19937;-72
2021/12/04 15:04:48;;;;;;;;;;;;;;;;;;5023203;28;20006;-72
2021/12/04 15:07:16;;;;;;;;;;;;;;;;;;5031576;28;20422;-74
2021/12/04 15:09:47;;;;;;;;;;;;;;;;;;5023030;28;19935;-74
2021/12/04 15:12:16;;;;;;;;;;;;;;;;;;5032418;28;20016;-74
2021/12/04 15:14:43;;;;;;;;;;;;;;;;;;5022689;28;19929;-74
2021/12/04 15:17:16;;;;;;;;;;;;;;;;;;5034679;28;19940;-71
2021/12/04 15:19:47;;;;;;;;;;;;;;;;;;5043735;28;19921;-71
2021/12/04 15:22:22;;;;;;;;;;;;;;;;;;5036909;28;19929;-73
2021/12/04 15:24:55;;;;;;;;;;;;;;;;;;5024671;28;20493;-73
2021/12/04 15:27:26;;;;;;;;;;;;;;;;;;5002646;28;20071;-71
2021/12/04 15:29:56;;;;;;;;;;;;;;;;;;5022430;28;19936;-70
2021/12/04 15:32:27;;;;;;;;;;;;;;;;;;5033411;28;19929;-73
2021/12/04 15:35:02;;;;;;;;;;;;;;;;;;5021415;28;19964;-73
2021/12/04 15:38:41;;;;;;;;;;;;;;;;;;5019535;28;20243;-70
2021/12/04 15:46:41;;;;;;;;;;;;;;;;;;5023064;28;19932;-71
2021/12/04 15:49:31;;;;;;;;;;;;;;;;;;5023549;28;19929;-72
2021/12/04 15:54:45;;;;;;;;;;;;;;;;;;5023111;28;19933;-69
2021/12/04 15:57:25;;;;;;;;;;;;;;;;;;5026521;28;19974;-72
2021/12/04 15:59:57;;;;;;;;;;;;;;;;;;5023820;28;19970;-69
2021/12/04 16:02:36;;;;;;;;;;;;;;;;;;5023011;28;19937;-70
2021/12/04 16:05:08;;;;;;;;;;;;;;;;;;5024354;28;20677;-69
2021/12/04 16:07:38;;;;;;;;;;;;;;;;;;5024983;28;19956;-69
2021/12/04 16:10:06;;;;;;;;;;;;;;;;;;5004021;28;19929;-69
2021/12/04 16:12:37;;;;;;;;;;;;;;;;;;5019484;28;19991;-70
2021/12/04 16:15:06;;;;;;;;;;;;;;;;;;5018340;28;19929;-70
2021/12/04 16:17:36;;;;;;;;;;;;;;;;;;5018553;28;20414;-70
2021/12/04 16:20:17;;;;;;;;;;;;;;;;;;5005327;28;20619;-70
2021/12/04 16:22:49;;;;;;;;;;;;;;;;;;5022931;28;19929;-70
2021/12/04 16:25:20;;;;;;;;;;;;;;;;;;5024680;28;20347;-69
2021/12/04 16:31:16;;;;;;;;;;;;;;;;;;5022916;28;20010;-69
2021/12/04 16:35:51;;;;;;;;;;;;;;;;;;5021382;28;19929;-69
2021/12/04 16:38:33;;;;;;;;;;;;;;;;;;5024537;28;20049;-69
2021/12/04 16:41:08;;;;;;;;;;;;;;;;;;5023638;28;19994;-69
2021/12/04 16:43:51;;;;;;;;;;;;;;;;;;5022846;28;20050;-69
2021/12/04 16:46:20;;;;;;;;;;;;;;;;;;5026882;28;19932;-69
2021/12/04 16:48:51;;;;;;;;;;;;;;;;;;5028491;28;19928;-69
2021/12/04 16:59:50;;;;;;;;;;;;;;;;;;5002842;28;19947;-69
2021/12/04 17:02:17;;;;;;;;;;;;;;;;;;5017835;28;19929;-69
2021/12/04 17:04:47;;;;;;;;;;;;;;;;;;5022774;28;19936;-69
2021/12/04 17:07:15;;;;;;;;;;;;;;;;;;5019877;28;20384;-69
2021/12/04 17:09:45;;;;;;;;;;;;;;;;;;5021113;28;19936;-69
2021/12/04 17:12:15;;;;;;;;;;;;;;;;;;5017445;28;19925;-69
2021/12/04 17:14:45;;;;;;;;;;;;;;;;;;5019057;28;20131;-70
2021/12/04 17:17:21;;;;;;;;;;;;;;;;;;5026200;28;19990;-70
2021/12/04 17:19:59;;;;;;;;;;;;;;;;;;5022108;28;19979;-70
2021/12/04 17:22:29;;;;;;;;;;;;;;;;;;5024297;28;19979;-70
2021/12/04 17:24:59;;;;;;;;;;;;;;;;;;5023017;28;19986;-70
2021/12/04 17:27:27;;;;;;;;;;;;;;;;;;5026261;28;19933;-69
2021/12/04 17:29:56;;;;;;;;;;;;;;;;;;5023980;28;19943;-70
2021/12/04 17:32:29;;;;;;;;;;;;;;;;;;5027126;28;19928;-70
2021/12/04 17:35:00;;;;;;;;;;;;;;;;;;5024330;28;19933;-70
2021/12/04 17:37:30;;;;;;;;;;;;;;;;;;5028201;28;19929;-69
2021/12/04 17:40:02;;;;;;;;;;;;;;;;;;5021949;28;19964;-70
2021/12/04 17:42:35;;;;;;;;;;;;;;;;;;4993120;28;19929;-69
2021/12/04 17:45:05;;;;;;;;;;;;;;;;;;5027086;28;19994;-69
2021/12/04 17:47:41;;;;;;;;;;;;;;;;;;5025484;28;19929;-70
2021/12/04 17:50:10;;;;;;;;;;;;;;;;;;5017989;28;19928;-69
2021/12/04 17:52:44;;;;;;;;;;;;;;;;;;5024649;28;19928;-69
2021/12/04 17:55:15;;;;;;;;;;;;;;;;;;5023082;28;19925;-69
2021/12/04 17:57:43;;;;;;;;;;;;;;;;;;5023778;28;19935;-69
2021/12/04 18:00:12;;;;;;;;;;;;;;;;;;5027829;28;19951;-70
2021/12/04 18:02:42;;;;;;;;;;;;;;;;;;5022392;28;19929;-70
2021/12/04 18:05:10;;;;;;;;;;;;;;;;;;5020432;28;19944;-69
2021/12/04 18:07:40;;;;;;;;;;;;;;;;;;5021597;28;19940;-69
2021/12/04 18:10:09;;;;;;;;;;;;;;;;;;5025084;28;19937;-70
2021/12/04 18:12:38;;;;;;;;;;;;;;;;;;5021648;28;20343;-70
2021/12/04 18:15:07;;;;;;;;;;;;;;;;;;5020611;28;20267;-70
2021/12/04 18:17:38;;;;;;;;;;;;;;;;;;5023818;28;19982;-69
2021/12/04 18:20:05;;;;;;;;;;;;;;;;;;5023718;28;20651;-69
2021/12/04 18:22:33;;;;;;;;;;;;;;;;;;5024455;28;20499;-69
2021/12/04 18:25:03;;;;;;;;;;;;;;;;;;5021067;28;19929;-69
2021/12/04 18:27:34;;;;;;;;;;;;;;;;;;5019230;28;19929;-70
2021/12/04 18:30:03;;;;;;;;;;;;;;;;;;5019966;28;19929;-71
2021/12/04 18:32:30;;;;;;;;;;;;;;;;;;5022261;28;19925;-70
2021/12/04 18:35:01;;;;;;;;;;;;;;;;;;5024771;28;19929;-73
2021/12/04 18:37:32;;;;;;;;;;;;;;;;;;5028028;28;20486;-69
2021/12/04 18:40:02;;;;;;;;;;;;;;;;;;5022967;28;20333;-70
2021/12/04 18:42:30;;;;;;;;;;;;;;;;;;5023447;28;19933;-71
2021/12/04 18:45:00;;;;;;;;;;;;;;;;;;5030474;28;20066;-68
2021/12/04 18:47:42;;;;;;;;;;;;;;;;;;5022508;28;20030;-69
2021/12/04 18:50:13;;;;;;;;;;;;;;;;;;5022755;28;19933;-69
2021/12/04 18:52:42;;;;;;;;;;;;;;;;;;5023693;28;19925;-69
2021/12/04 18:55:14;;;;;;;;;;;;;;;;;;5026202;28;19966;-68
2021/12/04 18:58:06;;;;;;;;;;;;;;;;;;5023853;28;19925;-68
2021/12/04 19:00:34;;;;;;;;;;;;;;;;;;5023845;28;19929;-69
2021/12/04 19:03:06;;;;;;;;;;;;;;;;;;5022297;28;19933;-68
2021/12/04 19:05:36;;;;;;;;;;;;;;;;;;5025433;28;19933;-69
2021/12/04 19:08:05;;;;;;;;;;;;;;;;;;5019192;28;19933;-69
2021/12/04 19:10:44;;;;;;;;;;;;;;;;;;5024280;28;19928;-69
2021/12/04 19:13:16;;;;;;;;;;;;;;;;;;5022435;28;20270;-68
2021/12/04 19:15:47;;;;;;;;;;;;;;;;;;5022191;28;21021;-68
2021/12/04 19:18:18;;;;;;;;;;;;;;;;;;5024429;28;19940;-69
2021/12/04 19:20:51;;;;;;;;;;;;;;;;;;5022750;28;19925;-69
2021/12/04 19:23:23;;;;;;;;;;;;;;;;;;5022298;28;19936;-69
2021/12/04 19:25:52;;;;;;;;;;;;;;;;;;5019297;28;19933;-70
2021/12/04 19:28:23;;;;;;;;;;;;;;;;;;5022457;28;19929;-70
2021/12/04 19:31:05;;;;;;;;;;;;;;;;;;5026557;28;19945;-70
2021/12/04 19:36:58;;;;;;;;;;;;;;;;;;5023741;28;20194;-70
2021/12/04 19:50:48;;;;;;;;;;;;;;;;;;5021644;28;20470;-70
2021/12/04 19:53:25;;;;;;;;;;;;;;;;;;5027562;28;20297;-70
2021/12/04 19:55:54;;;;;;;;;;;;;;;;;;5022551;28;19925;-70
2021/12/04 19:58:42;;;;;;;;;;;;;;;;;;5011782;28;19968;-70
2021/12/04 20:14:55;;;;;;;;;;;;;;;;;;5002445;28;19929;-70
2021/12/04 20:17:28;;;;;;;;;;;;;;;;;;5021740;28;20514;-70
2021/12/04 20:19:59;;;;;;;;;;;;;;;;;;5025767;28;19925;-70
2021/12/04 20:22:30;;;;;;;;;;;;;;;;;;5029100;28;20301;-70
2021/12/04 20:25:02;;;;;;;;;;;;;;;;;;5028842;28;20425;-70
2021/12/04 20:27:42;;;;;;;;;;;;;;;;;;5020719;28;19937;-70
2021/12/04 20:33:11;;;;;;;;;;;;;;;;;;5031253;28;20435;-70
2021/12/04 21:09:33;;;;;;;;;;;;;;;;;;5030514;28;19929;-70
2021/12/04 21:51:13;;;;;;;;;;;;;;;;;;5026291;28;19925;-69
2021/12/04 21:53:43;;;;;;;;;;;;;;;;;;5025176;28;20337;-69
2021/12/04 21:56:33;;;;;;;;;;;;;;;;;;5024475;28;19933;-69
2021/12/04 22:10:18;;;;;;;;;;;;;;;;;;5026972;28;19991;-69
2021/12/04 22:13:08;;;;;;;;;;;;;;;;;;5026598;28;20048;-70
2021/12/04 22:15:53;;;;;;;;;;;;;;;;;;5022679;28;19936;-69
2021/12/04 22:56:02;;;;;;;;;;;;;;;;;;5025739;28;19941;-70
2021/12/04 22:58:35;;;;;;;;;;;;;;;;;;5023103;28;19937;-70
2021/12/04 23:01:12;;;;;;;;;;;;;;;;;;5024823;28;19933;-70
2021/12/04 23:14:28;;;;;;;;;;;;;;;;;;5025494;28;19940;-70
2021/12/04 23:34:14;;;;;;;;;;;;;;;;;;5022662;28;19933;-69
2021/12/04 23:39:58;;;;;;;;;;;;;;;;;;5023354;28;19929;-69
